createdAt,value
2022-09-24T00:00:01.259Z,998.1
2022-09-24T00:05:01.364Z,998.08
2022-09-24T00:10:01.285Z,998.02
2022-09-24T00:15:01.583Z,998.09
2022-09-24T00:20:01.403Z,998.04
2022-09-24T00:25:01.665Z,998.07
2022-09-24T00:30:01.709Z,998.03
2022-09-24T00:35:02.001Z,997.94
2022-09-24T00:40:01.585Z,997.91
2022-09-24T00:45:01.657Z,997.91
2022-09-24T00:50:01.793Z,997.87
2022-09-24T00:55:02.067Z,997.88
2022-09-24T01:00:01.752Z,997.79
2022-09-24T01:05:01.463Z,997.79
2022-09-24T01:10:01.835Z,997.75
2022-09-24T01:15:02.195Z,997.73
2022-09-24T01:20:01.756Z,997.61
2022-09-24T01:25:01.357Z,997.61
2022-09-24T01:30:01.820Z,997.55
2022-09-24T01:35:02.043Z,997.51
2022-09-24T01:40:02.241Z,997.5
2022-09-24T01:45:01.720Z,997.47
2022-09-24T01:50:02.141Z,997.45
2022-09-24T01:55:02.107Z,997.41
2022-09-24T02:00:01.430Z,997.43
2022-09-24T02:05:02.033Z,997.42
2022-09-24T02:10:01.542Z,997.42
2022-09-24T02:15:02.125Z,997.4
2022-09-24T02:20:01.811Z,997.38
2022-09-24T02:25:01.549Z,997.39
2022-09-24T02:30:01.440Z,997.3
2022-09-24T02:35:02.195Z,997.28
2022-09-24T02:40:01.588Z,997.16
2022-09-24T02:45:01.838Z,997.09
2022-09-24T02:50:02.126Z,997.09
2022-09-24T02:55:01.709Z,997.08
2022-09-24T03:00:01.601Z,997.11
2022-09-24T03:05:01.906Z,997.1
2022-09-24T03:10:01.888Z,997.15
2022-09-24T03:15:01.852Z,997.13
2022-09-24T03:20:02.031Z,997.16
2022-09-24T03:25:01.461Z,997.19
2022-09-24T03:30:01.311Z,997.21
2022-09-24T03:35:01.296Z,997.14
2022-09-24T03:40:01.568Z,997.16
2022-09-24T03:45:01.477Z,997.16
2022-09-24T03:50:01.381Z,997.07
2022-09-24T03:55:02.157Z,996.98
2022-09-24T04:00:01.846Z,996.93
2022-09-24T04:05:02.207Z,996.98
2022-09-24T04:10:02.030Z,996.94
2022-09-24T04:15:01.763Z,996.9
2022-09-24T04:20:02.109Z,996.84
2022-09-24T04:25:02.053Z,996.76
2022-09-24T04:30:01.937Z,996.69
2022-09-24T04:35:07.386Z,996.72
2022-09-24T04:40:01.841Z,996.73
2022-09-24T04:45:01.520Z,996.71
2022-09-24T04:50:01.752Z,996.67
2022-09-24T04:55:01.858Z,996.62
2022-09-24T05:00:01.670Z,996.6
2022-09-24T05:05:01.795Z,996.54
2022-09-24T05:10:02.010Z,996.48
2022-09-24T05:15:01.856Z,996.4
2022-09-24T05:20:01.747Z,996.39
2022-09-24T05:25:01.475Z,996.43
2022-09-24T05:30:01.352Z,996.48
2022-09-24T05:35:01.389Z,996.37
2022-09-24T05:40:01.495Z,996.39
2022-09-24T05:45:01.526Z,996.56
2022-09-24T05:50:01.626Z,996.6
2022-09-24T05:55:01.668Z,996.65
2022-09-24T06:00:02.199Z,996.74
2022-09-24T06:05:01.253Z,996.75
2022-09-24T06:10:01.414Z,996.83
2022-09-24T06:15:01.564Z,996.78
2022-09-24T06:20:01.434Z,996.81
2022-09-24T06:25:01.423Z,996.88
2022-09-24T06:30:01.871Z,996.85
2022-09-24T06:35:02.150Z,996.87
2022-09-24T06:40:01.818Z,996.91
2022-09-24T06:45:01.780Z,996.95
2022-09-24T06:50:02.262Z,996.92
2022-09-24T06:55:02.262Z,996.99
2022-09-24T07:00:01.870Z,996.98
2022-09-24T07:05:01.336Z,996.96
2022-09-24T07:10:01.880Z,996.98
2022-09-24T07:15:01.854Z,997.01
2022-09-24T07:20:02.074Z,996.89
2022-09-24T07:25:01.668Z,996.98
2022-09-24T07:30:02.011Z,997.05
2022-09-24T07:35:01.868Z,997.01
2022-09-24T07:40:02.148Z,997.04
2022-09-24T07:45:01.573Z,997.07
2022-09-24T07:50:02.240Z,997.1
2022-09-24T07:55:01.823Z,997.09
2022-09-24T08:00:01.668Z,997.12
2022-09-24T08:05:01.380Z,997.21
2022-09-24T08:10:01.913Z,997.21
2022-09-24T08:15:01.964Z,997.15
2022-09-24T08:20:01.492Z,997.2
2022-09-24T08:25:02.052Z,997.2
2022-09-24T08:30:02.375Z,997.23
2022-09-24T08:35:01.280Z,997.22
2022-09-24T08:40:01.925Z,997.25
2022-09-24T08:45:01.474Z,997.25
2022-09-24T08:50:02.433Z,997.23
2022-09-24T08:55:01.964Z,997.21
2022-09-24T09:00:02.030Z,997.23
2022-09-24T09:05:02.490Z,997.19
2022-09-24T09:10:02.321Z,997.19
2022-09-24T09:15:01.682Z,997.2
2022-09-24T09:20:01.358Z,997.2
2022-09-24T09:25:04.273Z,997.16
2022-09-24T09:30:01.814Z,997.16
2022-09-24T09:35:02.250Z,997.23
2022-09-24T09:40:02.558Z,997.23
2022-09-24T09:45:02.045Z,997.24
2022-09-24T09:50:01.377Z,997.21
2022-09-24T09:55:01.695Z,997.26
2022-09-24T10:00:01.725Z,997.28
2022-09-24T10:05:01.810Z,997.3
2022-09-24T10:10:02.570Z,997.34
2022-09-24T10:15:01.570Z,997.29
2022-09-24T10:20:02.353Z,997.32
2022-09-24T10:25:02.651Z,997.28
2022-09-24T10:30:02.492Z,997.17
2022-09-24T10:35:01.688Z,997.12
2022-09-24T10:40:01.387Z,997.1
2022-09-24T10:45:01.491Z,997.06
2022-09-24T10:50:01.701Z,997.09
2022-09-24T10:55:02.188Z,997.1
2022-09-24T11:00:02.286Z,997.12
2022-09-24T11:05:01.657Z,997.05
2022-09-24T11:10:01.365Z,997.01
2022-09-24T11:15:01.663Z,997.02
2022-09-24T11:20:01.602Z,997
2022-09-24T11:25:02.149Z,997.02
2022-09-24T11:30:01.941Z,997
2022-09-24T11:35:01.902Z,997.03
2022-09-24T11:40:02.038Z,996.98
2022-09-24T11:45:02.224Z,996.95
2022-09-24T11:50:01.834Z,996.92
2022-09-24T11:55:01.814Z,996.93
2022-09-24T12:00:01.791Z,996.87
2022-09-24T12:05:02.229Z,996.91
2022-09-24T12:10:01.453Z,996.88
2022-09-24T12:15:01.874Z,996.88
2022-09-24T12:20:01.595Z,996.86
2022-09-24T12:25:01.692Z,996.83
2022-09-24T12:30:01.818Z,996.84
2022-09-24T12:35:02.112Z,996.88
2022-09-24T12:40:01.410Z,996.8
2022-09-24T12:45:01.417Z,996.73
2022-09-24T12:50:01.775Z,996.77
2022-09-24T12:55:01.575Z,996.79
2022-09-24T13:00:01.614Z,996.73
2022-09-24T13:05:01.875Z,996.74
2022-09-24T13:10:02.197Z,996.74
2022-09-24T13:15:01.902Z,996.66
2022-09-24T13:20:01.413Z,996.64
2022-09-24T13:25:02.216Z,996.64
2022-09-24T13:30:02.136Z,996.66
2022-09-24T13:35:01.512Z,996.63
2022-09-24T13:40:01.943Z,996.63
2022-09-24T13:45:02.579Z,996.63
2022-09-24T13:50:01.495Z,996.68
2022-09-24T13:55:01.488Z,996.7
2022-09-24T14:00:01.748Z,996.69
2022-09-24T14:05:01.461Z,996.69
2022-09-24T14:10:01.318Z,996.73
2022-09-24T14:15:01.833Z,996.71
2022-09-24T14:20:01.649Z,996.71
2022-09-24T14:25:01.919Z,996.59
2022-09-24T14:30:02.167Z,996.64
2022-09-24T14:35:01.898Z,996.68
2022-09-24T14:40:02.645Z,996.64
2022-09-24T14:45:01.705Z,996.65
2022-09-24T14:50:01.309Z,996.61
2022-09-24T14:55:02.191Z,996.55
2022-09-24T15:00:02.039Z,996.63
2022-09-24T15:05:05.851Z,996.6
2022-09-24T15:10:01.780Z,996.62
2022-09-24T15:15:01.637Z,996.63
2022-09-24T15:20:01.687Z,996.66
2022-09-24T15:25:02.643Z,996.67
2022-09-24T15:30:01.805Z,996.68
2022-09-24T15:35:01.619Z,996.66
2022-09-24T15:40:01.687Z,996.72
2022-09-24T15:45:01.696Z,996.7
2022-09-24T15:50:01.755Z,996.71
2022-09-24T15:55:01.556Z,996.66
2022-09-24T16:00:01.898Z,996.66
2022-09-24T16:05:04.165Z,996.7
2022-09-24T16:10:01.744Z,996.75
2022-09-24T16:15:02.227Z,996.74
2022-09-24T16:20:01.681Z,996.77
2022-09-24T16:25:01.436Z,996.79
2022-09-24T16:30:02.257Z,996.84
2022-09-24T16:35:02.267Z,996.83
2022-09-24T16:40:01.622Z,996.9
2022-09-24T16:45:01.865Z,996.93
2022-09-24T16:50:01.754Z,996.97
2022-09-24T16:55:01.347Z,996.9
2022-09-24T17:00:01.695Z,996.89
2022-09-24T17:05:01.813Z,996.87
2022-09-24T17:10:01.732Z,996.94
2022-09-24T17:15:01.968Z,996.97
2022-09-24T17:20:01.258Z,996.96
2022-09-24T17:25:01.534Z,996.98
2022-09-24T17:30:02.031Z,997.05
2022-09-24T17:35:02.387Z,997.06
2022-09-24T17:40:02.061Z,997.14
2022-09-24T17:45:01.849Z,997.1
2022-09-24T17:50:01.328Z,997.13
2022-09-24T17:55:02.127Z,997.16
2022-09-24T18:00:01.265Z,997.15
2022-09-24T18:05:01.341Z,997.11
2022-09-24T18:10:02.169Z,997.14
2022-09-24T18:15:01.478Z,997.18
2022-09-24T18:20:02.205Z,997.21
2022-09-24T18:25:02.240Z,997.23
2022-09-24T18:30:02.238Z,997.22
2022-09-24T18:35:01.905Z,997.26
2022-09-24T18:40:01.259Z,997.29
2022-09-24T18:45:02.192Z,997.32
2022-09-24T18:50:02.123Z,997.32
2022-09-24T18:55:02.010Z,997.37
2022-09-24T19:00:01.654Z,997.38
2022-09-24T19:05:01.547Z,997.44
2022-09-24T19:10:01.483Z,997.42
2022-09-24T19:15:02.295Z,997.42
2022-09-24T19:20:01.831Z,997.38
2022-09-24T19:25:01.764Z,997.48
2022-09-24T19:30:01.818Z,997.52
2022-09-24T19:35:01.968Z,997.5
2022-09-24T19:40:02.159Z,997.46
2022-09-24T19:45:02.060Z,997.52
2022-09-24T19:50:02.177Z,997.48
2022-09-24T19:55:01.331Z,997.51
2022-09-24T20:00:01.677Z,997.59
2022-09-24T20:05:01.861Z,997.58
2022-09-24T20:10:01.698Z,997.6
2022-09-24T20:15:02.032Z,997.6
2022-09-24T20:20:01.755Z,997.57
2022-09-24T20:25:01.778Z,997.61
2022-09-24T20:30:01.301Z,997.63
2022-09-24T20:35:01.471Z,997.66
2022-09-24T20:40:01.547Z,997.67
2022-09-24T20:45:06.095Z,997.77
2022-09-24T20:50:01.277Z,997.78
2022-09-24T20:55:01.508Z,997.76
2022-09-24T21:00:01.282Z,997.72
2022-09-24T21:05:01.590Z,997.74
2022-09-24T21:10:02.107Z,997.75
2022-09-24T21:15:02.351Z,997.75
2022-09-24T21:20:02.004Z,997.78
2022-09-24T21:25:01.295Z,997.78
2022-09-24T21:30:02.033Z,997.82
2022-09-24T21:35:01.971Z,997.83
2022-09-24T21:40:01.500Z,997.78
2022-09-24T21:45:01.269Z,997.74
2022-09-24T21:50:02.051Z,997.76
2022-09-24T21:55:01.703Z,997.76
2022-09-24T22:00:01.906Z,997.71
2022-09-24T22:05:01.624Z,997.77
2022-09-24T22:10:01.938Z,997.81
2022-09-24T22:15:01.391Z,997.76
2022-09-24T22:20:01.951Z,997.73
2022-09-24T22:25:01.934Z,997.73
2022-09-24T22:30:01.714Z,997.75
2022-09-24T22:35:02.200Z,997.76
2022-09-24T22:40:01.842Z,997.68
2022-09-24T22:45:01.777Z,997.63
2022-09-24T22:50:02.021Z,997.6
2022-09-24T22:55:01.854Z,997.63
2022-09-24T23:00:02.246Z,997.65
2022-09-24T23:05:01.488Z,997.66
2022-09-24T23:10:01.680Z,997.68
2022-09-24T23:15:01.631Z,997.71
2022-09-24T23:20:01.923Z,997.62
2022-09-24T23:25:01.689Z,997.69
2022-09-24T23:30:01.615Z,997.65
2022-09-24T23:35:01.657Z,997.62
2022-09-24T23:40:01.963Z,997.63
2022-09-24T23:45:01.879Z,997.63
2022-09-24T23:50:01.274Z,997.68
2022-09-24T23:55:02.166Z,997.72
